createdAt,value
2022-12-11T00:01:15.616Z,22.92
2022-12-11T00:03:45.292Z,21.77
2022-12-11T00:06:19.027Z,26.02
2022-12-11T02:53:40.071Z,19.27
2022-12-11T03:20:25.633Z,16.67
2022-12-11T04:06:06.907Z,16.75
2022-12-11T04:08:50.120Z,16.50
2022-12-11T04:14:56.336Z,15.90
2022-12-11T04:21:05.260Z,15.10
2022-12-11T04:50:44.072Z,17.52
2022-12-11T08:02:37.180Z,15.05
2022-12-11T08:05:06.483Z,15.93
2022-12-11T08:07:36.924Z,15.23
2022-12-11T08:10:06.116Z,14.70
2022-12-11T08:12:34.686Z,16.70
2022-12-11T08:15:03.060Z,17.77
2022-12-11T08:17:39.687Z,15.80
2022-12-11T08:20:09.741Z,15.85
2022-12-11T08:22:39.051Z,20.23
2022-12-11T08:25:09.239Z,19.27
2022-12-11T08:27:38.462Z,17.20
2022-12-11T08:30:07.892Z,18.75
2022-12-11T08:32:37.826Z,15.63
2022-12-11T08:35:06.763Z,22.50
2022-12-11T08:37:35.502Z,17.08
2022-12-11T08:40:04.284Z,14.90
2022-12-11T08:42:33.610Z,18.65
2022-12-11T08:45:06.076Z,17.20
2022-12-11T08:47:38.945Z,12.73
2022-12-11T08:50:11.852Z,16.17
2022-12-11T08:52:42.556Z,19.40
2022-12-11T08:55:12.850Z,17.00
2022-12-11T08:57:41.308Z,16.63
2022-12-11T09:00:13.484Z,15.57
2022-12-11T09:02:41.625Z,15.10
2022-12-11T09:05:12.083Z,18.80
2022-12-11T09:07:41.508Z,16.08
2022-12-11T09:10:11.046Z,13.48
2022-12-11T09:12:43.519Z,13.32
2022-12-11T09:15:12.729Z,16.17
2022-12-11T09:17:41.326Z,15.27
2022-12-11T09:20:13.438Z,14.20
2022-12-11T09:22:43.067Z,18.85
2022-12-11T09:25:12.734Z,15.52
2022-12-11T09:27:41.514Z,13.02
2022-12-11T09:30:11.165Z,15.90
2022-12-11T09:32:39.956Z,19.10
2022-12-11T09:35:10.326Z,17.02
2022-12-11T09:37:40.732Z,17.13
2022-12-11T09:40:12.568Z,16.65
2022-12-11T09:42:51.085Z,13.30
2022-12-11T09:45:19.442Z,20.40
2022-12-11T09:47:51.392Z,20.17
2022-12-11T09:50:23.832Z,16.20
2022-12-11T09:53:06.320Z,15.88
2022-12-11T09:55:44.617Z,16.55
2022-12-11T09:58:24.196Z,17.88
2022-12-11T10:01:00.018Z,16.52
2022-12-11T10:03:57.573Z,15.65
2022-12-11T10:06:33.832Z,19.77
2022-12-11T10:09:21.772Z,17.85
2022-12-11T10:12:01.266Z,16.15
2022-12-11T10:14:44.941Z,16.08
2022-12-11T10:17:20.464Z,14.02
2022-12-11T10:19:50.058Z,18.23
2022-12-11T10:22:24.219Z,13.38
2022-12-11T10:25:14.258Z,17.67
2022-12-11T10:27:44.789Z,12.65
2022-12-11T10:30:18.381Z,13.93
2022-12-11T10:32:53.324Z,12.60
2022-12-11T10:35:32.677Z,10.57
2022-12-11T10:38:12.753Z,14.90
2022-12-11T10:40:46.037Z,10.93
2022-12-11T10:43:14.304Z,15.10
2022-12-11T10:45:51.974Z,14.35
2022-12-11T10:48:22.118Z,13.30
2022-12-11T10:50:59.874Z,13.30
2022-12-11T10:53:29.565Z,9.07
2022-12-11T10:55:59.984Z,10.40
2022-12-11T10:58:34.416Z,15.48
2022-12-11T11:01:10.997Z,14.48
2022-12-11T11:03:52.976Z,14.60
2022-12-11T11:06:23.762Z,9.90
2022-12-11T11:08:54.226Z,10.45
2022-12-11T11:11:33.920Z,11.77
2022-12-11T11:14:16.250Z,13.88
2022-12-11T11:16:53.890Z,8.23
2022-12-11T11:19:26.606Z,12.90
2022-12-11T11:21:58.799Z,11.13
2022-12-11T11:24:51.870Z,9.63
2022-12-11T11:27:33.683Z,12.57
2022-12-11T11:30:05.709Z,11.38
2022-12-11T11:32:39.830Z,15.65
2022-12-11T11:35:31.159Z,16.65
2022-12-11T11:38:07.048Z,13.95
2022-12-11T11:40:44.051Z,10.77
2022-12-11T11:43:20.527Z,11.02
2022-12-11T11:45:57.697Z,9.80
2022-12-11T11:48:39.041Z,13.57
2022-12-11T11:51:16.149Z,13.48
2022-12-11T11:53:49.789Z,9.32
2022-12-11T11:56:26.792Z,11.80
2022-12-11T11:59:13.936Z,17.27
2022-12-11T12:01:43.239Z,13.77
2022-12-11T12:04:13.844Z,16.40
2022-12-11T12:07:00.353Z,10.57
2022-12-11T12:09:47.822Z,13.55
2022-12-11T12:12:34.192Z,16.00
2022-12-11T12:15:25.497Z,12.05
2022-12-11T12:17:56.497Z,13.75
2022-12-11T12:20:32.252Z,13.85
2022-12-11T12:23:16.502Z,12.88
2022-12-11T12:25:50.569Z,11.07
2022-12-11T12:28:27.197Z,10.70
2022-12-11T12:31:09.784Z,10.05
2022-12-11T12:33:54.731Z,17.05
2022-12-11T12:36:29.420Z,12.95
2022-12-11T12:39:03.811Z,12.98
2022-12-11T12:41:44.533Z,22.38
2022-12-11T12:44:16.867Z,14.43
2022-12-11T12:46:58.610Z,14.73
2022-12-11T12:49:35.867Z,11.43
2022-12-11T12:52:06.516Z,10.75
2022-12-11T12:54:37.114Z,14.07
2022-12-11T12:57:06.686Z,12.82
2022-12-11T12:59:35.128Z,10.73
2022-12-11T13:02:06.696Z,14.10
2022-12-11T13:04:55.912Z,15.45
2022-12-11T13:07:29.922Z,15.98
2022-12-11T13:10:01.576Z,16.15
2022-12-11T13:12:41.539Z,15.00
2022-12-11T13:15:26.443Z,12.85
2022-12-11T13:17:56.738Z,12.75
2022-12-11T13:20:28.052Z,15.50
2022-12-11T13:23:10.721Z,11.10
2022-12-11T13:25:57.988Z,18.10
2022-12-11T13:28:32.724Z,9.50
2022-12-11T13:31:07.947Z,13.02
2022-12-11T13:33:46.117Z,9.80
2022-12-11T13:36:31.769Z,13.10
2022-12-11T13:39:06.137Z,14.38
2022-12-11T13:41:37.105Z,9.30
2022-12-11T13:44:08.531Z,12.25
2022-12-11T13:46:39.807Z,13.38
2022-12-11T13:49:21.883Z,11.73
2022-12-11T13:51:55.336Z,14.57
2022-12-11T13:54:24.084Z,16.20
2022-12-11T13:57:02.600Z,14.90
2022-12-11T13:59:34.472Z,15.60
2022-12-11T14:02:07.798Z,15.05
2022-12-11T14:04:39.193Z,11.55
2022-12-11T14:07:10.545Z,21.60
2022-12-11T14:09:44.146Z,15.98
2022-12-11T14:12:18.879Z,15.85
2022-12-11T14:14:51.428Z,13.30
2022-12-11T14:17:25.250Z,20.80
2022-12-11T14:19:57.655Z,14.38
2022-12-11T14:22:28.506Z,19.05
2022-12-11T14:25:01.076Z,16.77
2022-12-11T14:27:29.616Z,22.13
2022-12-11T14:29:58.348Z,15.13
2022-12-11T14:32:33.349Z,13.68
2022-12-11T14:35:06.557Z,18.80
2022-12-11T14:37:39.271Z,14.85
2022-12-11T14:40:11.571Z,16.20
2022-12-11T14:42:46.299Z,20.42
2022-12-11T14:45:21.630Z,14.18
2022-12-11T14:47:51.133Z,17.75
2022-12-11T14:50:24.155Z,19.90
2022-12-11T14:52:57.221Z,17.63
2022-12-11T14:55:28.404Z,20.08
2022-12-11T14:58:01.548Z,19.05
2022-12-11T15:00:34.733Z,22.17
2022-12-11T15:03:11.752Z,23.98
2022-12-11T15:05:54.368Z,19.75
2022-12-11T15:08:31.084Z,16.05
2022-12-11T15:11:06.134Z,20.95
2022-12-11T15:13:37.945Z,17.27
2022-12-11T15:16:09.055Z,20.20
2022-12-11T15:18:40.465Z,23.92
2022-12-11T15:21:13.850Z,16.42
2022-12-11T15:23:52.890Z,19.40
2022-12-11T15:26:24.614Z,15.55
2022-12-11T15:29:15.077Z,18.30
2022-12-11T15:31:44.847Z,17.85
2022-12-11T15:34:24.950Z,18.40
2022-12-11T15:36:59.878Z,16.60
2022-12-11T15:39:29.936Z,18.17
2022-12-11T15:41:58.437Z,17.80
2022-12-11T15:44:36.440Z,22.70
2022-12-11T15:47:14.084Z,19.60
2022-12-11T15:49:42.397Z,20.30
2022-12-11T15:52:18.725Z,17.13
2022-12-11T15:54:47.111Z,24.00
2022-12-11T15:57:25.318Z,16.42
2022-12-11T15:59:56.969Z,15.45
2022-12-11T16:02:27.001Z,14.15
2022-12-11T16:04:57.870Z,25.83
2022-12-11T16:07:33.893Z,22.25
2022-12-11T16:10:05.452Z,21.52
2022-12-11T16:12:33.914Z,18.92
2022-12-11T16:15:02.445Z,26.10
2022-12-11T16:17:31.790Z,21.40
2022-12-11T16:20:00.519Z,25.85
2022-12-11T16:22:30.555Z,25.52
2022-12-11T16:24:59.047Z,23.95
2022-12-11T16:27:30.358Z,23.40
2022-12-11T16:30:01.073Z,26.80
2022-12-11T16:32:29.657Z,28.15
2022-12-11T16:35:04.289Z,29.77
2022-12-11T16:37:37.609Z,28.60
2022-12-11T16:40:08.424Z,29.02
2022-12-11T16:42:48.794Z,24.88
2022-12-11T16:45:21.151Z,29.00
2022-12-11T16:47:51.318Z,29.92
2022-12-11T16:50:23.950Z,27.45
2022-12-11T16:52:56.718Z,25.85
2022-12-11T16:55:25.920Z,26.30
2022-12-11T16:57:55.490Z,27.58
2022-12-11T17:00:24.056Z,24.83
2022-12-11T17:02:52.663Z,19.10
2022-12-11T17:05:22.718Z,25.92
2022-12-11T17:07:51.148Z,28.15
2022-12-11T17:10:25.024Z,29.92
2022-12-11T17:12:55.625Z,31.35
2022-12-11T17:15:24.517Z,20.35
2022-12-11T17:17:53.069Z,25.38
2022-12-11T17:20:22.808Z,27.42
2022-12-11T17:22:53.345Z,26.83
2022-12-11T17:25:23.501Z,28.80
2022-12-11T17:28:04.099Z,29.33
2022-12-11T17:30:33.134Z,32.53
2022-12-11T17:33:02.878Z,31.80
2022-12-11T17:35:35.426Z,26.42
2022-12-11T17:38:04.100Z,29.35
2022-12-11T17:40:37.385Z,31.73
2022-12-11T17:43:10.021Z,26.35
2022-12-11T17:45:44.922Z,31.35
2022-12-11T17:48:14.826Z,27.52
2022-12-11T17:50:46.730Z,33.72
2022-12-11T17:53:17.105Z,30.88
2022-12-11T17:55:51.753Z,34.58
2022-12-11T17:58:22.781Z,37.05
2022-12-11T18:00:53.508Z,34.10
2022-12-11T18:03:23.572Z,35.10
2022-12-11T18:06:10.490Z,29.75
2022-12-11T18:08:48.144Z,29.73
2022-12-11T18:11:32.404Z,25.40
2022-12-11T18:14:01.898Z,28.83
2022-12-11T18:16:33.680Z,30.27
2022-12-11T18:19:03.098Z,30.85
2022-12-11T18:21:35.041Z,27.20
2022-12-11T18:24:05.286Z,33.25
2022-12-11T18:26:40.621Z,37.00
2022-12-11T18:29:09.374Z,38.88
2022-12-11T18:31:42.417Z,34.13
2022-12-11T18:34:14.854Z,38.03
2022-12-11T18:36:44.987Z,39.65
2022-12-11T18:39:20.192Z,40.15
2022-12-11T18:42:31.129Z,51.05
2022-12-11T18:44:50.159Z,42.67
2022-12-11T18:47:19.191Z,43.17
2022-12-11T18:49:47.719Z,37.17
2022-12-11T18:52:16.819Z,35.28
2022-12-11T18:54:45.498Z,30.42
2022-12-11T18:57:15.939Z,38.85
2022-12-11T19:00:07.661Z,32.13
2022-12-11T19:02:37.371Z,32.08
2022-12-11T19:05:09.466Z,34.33
2022-12-11T19:07:38.281Z,33.22
2022-12-11T19:10:07.916Z,34.40
2022-12-11T19:12:38.406Z,36.63
2022-12-11T19:15:13.727Z,34.25
2022-12-11T19:20:58.026Z,31.27
2022-12-11T19:23:37.199Z,34.70
2022-12-11T19:26:32.537Z,36.95
2022-12-11T19:29:23.691Z,33.88
2022-12-11T19:32:03.539Z,32.88
2022-12-11T19:34:36.695Z,33.67
2022-12-11T19:37:09.128Z,35.85
2022-12-11T19:39:41.839Z,36.17
2022-12-11T19:42:12.000Z,36.00
2022-12-11T19:44:50.596Z,36.97
2022-12-11T19:47:22.885Z,43.03
2022-12-11T19:49:57.053Z,29.10
2022-12-11T19:52:37.478Z,36.90
2022-12-11T19:55:10.622Z,42.58
2022-12-11T19:57:42.199Z,32.90
2022-12-11T20:00:25.119Z,35.55
2022-12-11T20:02:57.661Z,37.25
2022-12-11T20:05:31.650Z,30.65
2022-12-11T20:08:35.314Z,29.55
2022-12-11T20:10:56.095Z,36.50
2022-12-11T20:13:37.097Z,35.40
2022-12-11T20:16:16.413Z,30.77
2022-12-11T20:18:49.828Z,32.20
2022-12-11T20:21:26.021Z,35.42
2022-12-11T20:23:57.558Z,35.72
2022-12-11T20:26:30.184Z,35.65
2022-12-11T20:29:05.756Z,43.15
2022-12-11T20:31:43.162Z,35.08
2022-12-11T20:34:14.991Z,33.00
2022-12-11T20:36:45.441Z,32.38
2022-12-11T20:39:15.579Z,32.75
2022-12-11T20:41:44.798Z,33.15
2022-12-11T20:44:14.292Z,34.17
2022-12-11T20:46:46.339Z,37.80
2022-12-11T20:49:15.474Z,30.92
2022-12-11T20:51:44.247Z,29.58
2022-12-11T20:54:14.844Z,34.65
2022-12-11T20:56:45.395Z,34.63
2022-12-11T20:59:15.867Z,40.72
2022-12-11T21:01:48.864Z,37.00
2022-12-11T21:04:18.121Z,44.95
2022-12-11T21:06:47.639Z,33.60
2022-12-11T21:09:30.941Z,41.03
2022-12-11T21:15:13.160Z,33.97
2022-12-11T21:21:12.308Z,37.45
2022-12-11T21:23:57.822Z,38.35
2022-12-11T21:29:16.293Z,35.92
2022-12-11T21:31:50.185Z,41.90
2022-12-11T21:34:25.871Z,43.92
2022-12-11T21:36:57.308Z,36.88
2022-12-11T21:39:31.609Z,35.30
2022-12-11T21:42:02.475Z,33.35
2022-12-11T21:47:19.911Z,35.42
2022-12-11T21:49:50.191Z,43.17
2022-12-11T21:52:19.750Z,44.25
2022-12-11T21:54:49.487Z,40.80
2022-12-11T21:57:24.384Z,36.53
2022-12-11T21:59:56.967Z,33.95
2022-12-11T22:02:26.338Z,43.08
2022-12-11T22:04:56.617Z,41.10
2022-12-11T22:07:25.624Z,43.67
2022-12-11T22:09:54.230Z,37.70
2022-12-11T22:12:26.077Z,41.55
2022-12-11T22:14:57.669Z,43.10
2022-12-11T22:17:35.622Z,38.45
2022-12-11T22:20:12.964Z,36.58
2022-12-11T22:22:42.816Z,44.58
2022-12-11T22:25:12.554Z,36.58
2022-12-11T22:30:38.507Z,41.15
2022-12-11T22:33:08.598Z,36.00
2022-12-11T22:38:46.006Z,42.38
2022-12-11T22:41:21.975Z,38.60
2022-12-11T22:43:51.448Z,41.55
2022-12-11T22:46:23.628Z,36.90
2022-12-11T22:48:52.161Z,42.83
2022-12-11T22:51:21.419Z,44.78
2022-12-11T22:57:15.441Z,45.97
2022-12-11T22:59:51.650Z,47.05
2022-12-11T23:02:21.844Z,39.45
2022-12-11T23:04:56.854Z,43.25
2022-12-11T23:07:25.918Z,40.33
2022-12-11T23:09:53.980Z,41.13
2022-12-11T23:12:23.614Z,39.00
2022-12-11T23:14:52.072Z,42.85
2022-12-11T23:17:21.840Z,42.10
2022-12-11T23:19:50.089Z,43.42
2022-12-11T23:22:18.607Z,41.80
2022-12-11T23:24:47.263Z,40.38
2022-12-11T23:27:15.454Z,42.35
2022-12-11T23:29:43.698Z,39.40
2022-12-11T23:32:12.028Z,46.67
2022-12-11T23:34:42.001Z,46.78
2022-12-11T23:37:10.925Z,45.33
2022-12-11T23:39:39.383Z,37.17
2022-12-11T23:42:09.447Z,34.10
2022-12-11T23:44:38.047Z,41.25
2022-12-11T23:47:06.359Z,40.50
2022-12-11T23:49:34.865Z,39.83
2022-12-11T23:52:06.162Z,39.15
